createdAt,value
2023-02-02T00:00:19.265Z,562.2
2023-02-02T00:01:21.763Z,561.8
2023-02-02T00:02:24.459Z,563.2
2023-02-02T00:03:27.000Z,562.8
2023-02-02T00:04:29.514Z,562.9
2023-02-02T00:05:31.455Z,562.9
2023-02-02T00:06:34.139Z,562.7
2023-02-02T00:07:36.660Z,563.3
2023-02-02T00:08:39.170Z,562.9
2023-02-02T00:09:41.661Z,562.9
2023-02-02T00:10:43.886Z,563.4
2023-02-02T00:11:46.412Z,563.7
2023-02-02T00:12:49.136Z,563.7
2023-02-02T00:13:51.333Z,564.3
2023-02-02T00:14:53.854Z,563.7
2023-02-02T00:15:56.294Z,563.2
2023-02-02T00:16:58.284Z,563.5
2023-02-02T00:18:00.794Z,562.6
2023-02-02T00:19:03.321Z,563.1
2023-02-02T00:20:05.279Z,563.6
2023-02-02T00:21:07.799Z,563.4
2023-02-02T00:22:10.415Z,563.3
2023-02-02T00:23:12.643Z,564.4
2023-02-02T00:24:15.154Z,563.6
2023-02-02T00:25:17.649Z,564
2023-02-02T00:26:20.404Z,563.8
2023-02-02T00:27:22.901Z,562.1
2023-02-02T00:28:25.216Z,563.7
2023-02-02T00:29:27.741Z,563.9
2023-02-02T00:30:30.483Z,564.3
2023-02-02T00:31:33.233Z,564.5
2023-02-02T00:32:35.766Z,563.9
2023-02-02T00:33:37.970Z,564
2023-02-02T00:34:40.506Z,564.1
2023-02-02T00:35:42.994Z,564
2023-02-02T00:36:45.532Z,564.9
2023-02-02T00:37:47.862Z,565
2023-02-02T00:38:50.423Z,564.1
2023-02-02T00:39:52.935Z,564.6
2023-02-02T00:40:55.434Z,564.2
2023-02-02T00:41:58.192Z,564.8
2023-02-02T00:43:00.695Z,564.5
2023-02-02T00:44:03.195Z,565.1
2023-02-02T00:45:05.427Z,564.9
2023-02-02T00:46:08.301Z,564.6
2023-02-02T00:47:10.336Z,564.5
2023-02-02T00:48:12.843Z,564.2
2023-02-02T00:49:15.349Z,564.2
2023-02-02T00:50:17.876Z,564
2023-02-02T00:51:19.799Z,564.2
2023-02-02T00:52:22.291Z,564.8
2023-02-02T00:53:24.921Z,564.6
2023-02-02T00:54:27.413Z,564.2
2023-02-02T00:55:29.907Z,564.4
2023-02-02T00:56:32.282Z,563.5
2023-02-02T00:57:34.685Z,564.6
2023-02-02T00:58:37.202Z,563.9
2023-02-02T00:59:39.686Z,564.8
2023-02-02T01:00:42.639Z,564.5
2023-02-02T01:01:45.582Z,564.7
2023-02-02T01:02:47.823Z,564.1
2023-02-02T01:03:50.045Z,564
2023-02-02T01:04:52.535Z,564
2023-02-02T01:05:55.047Z,564.2
2023-02-02T01:06:57.538Z,563.8
2023-02-02T01:08:00.046Z,563.6
2023-02-02T01:09:02.627Z,564.7
2023-02-02T01:10:04.914Z,563.1
2023-02-02T01:11:07.139Z,563.9
2023-02-02T01:12:09.375Z,564.5
2023-02-02T01:13:11.895Z,563.6
2023-02-02T01:14:14.424Z,564.2
2023-02-02T01:15:16.673Z,564.8
2023-02-02T01:16:19.147Z,564.4
2023-02-02T01:17:21.693Z,563.9
2023-02-02T01:18:24.184Z,563.8
2023-02-02T01:19:26.685Z,564.2
2023-02-02T01:20:28.912Z,564.5
2023-02-02T01:21:31.444Z,563.7
2023-02-02T01:22:33.935Z,565.4
2023-02-02T01:23:36.568Z,564.7
2023-02-02T01:24:39.179Z,564.7
2023-02-02T01:25:41.673Z,564.7
2023-02-02T01:26:44.317Z,565
2023-02-02T01:27:46.877Z,565.2
2023-02-02T01:28:49.388Z,565.1
2023-02-02T01:29:51.340Z,563.5
2023-02-02T01:30:54.075Z,564.5
2023-02-02T01:31:56.945Z,564.8
2023-02-02T01:32:59.467Z,564.5
2023-02-02T01:34:02.053Z,566.2
2023-02-02T01:35:03.993Z,564.4
2023-02-02T01:36:05.926Z,565.1
2023-02-02T01:37:08.161Z,564.5
2023-02-02T01:38:10.670Z,563.8
2023-02-02T01:39:12.922Z,565.7
2023-02-02T01:40:15.568Z,565.4
2023-02-02T01:41:32.727Z,564.5
2023-02-02T01:42:35.230Z,565.1
2023-02-02T01:43:37.445Z,564.6
2023-02-02T01:44:39.634Z,565.3
2023-02-02T01:45:42.311Z,565.5
2023-02-02T01:46:44.258Z,564.2
2023-02-02T01:47:46.752Z,564.3
2023-02-02T01:48:49.249Z,565.3
2023-02-02T01:49:51.789Z,565.3
2023-02-02T01:50:54.020Z,566
2023-02-02T01:51:56.241Z,565.9
2023-02-02T01:52:58.745Z,566.3
2023-02-02T01:54:01.023Z,566.8
2023-02-02T01:55:03.662Z,565.6
2023-02-02T01:56:05.998Z,565.1
2023-02-02T01:57:08.501Z,565.9
2023-02-02T01:58:11.013Z,567.3
2023-02-02T01:59:13.263Z,565.6
2023-02-02T02:00:15.516Z,566
2023-02-02T02:01:18.443Z,565.6
2023-02-02T02:02:20.959Z,566.2
2023-02-02T02:03:23.505Z,565
2023-02-02T02:04:25.736Z,565.6
2023-02-02T02:05:28.513Z,565.1
2023-02-02T02:06:31.017Z,565.2
2023-02-02T02:07:33.221Z,566
2023-02-02T02:08:35.453Z,566.7
2023-02-02T02:09:38.002Z,568.3
2023-02-02T02:10:40.200Z,567.4
2023-02-02T02:11:42.519Z,567.2
2023-02-02T02:12:44.462Z,566.3
2023-02-02T02:13:46.981Z,566
2023-02-02T02:14:49.206Z,566.7
2023-02-02T02:15:51.699Z,566.6
2023-02-02T02:16:54.421Z,566.5
2023-02-02T02:17:56.953Z,568
2023-02-02T02:18:59.464Z,568.1
2023-02-02T02:20:01.698Z,565.7
2023-02-02T02:21:04.207Z,566.9
2023-02-02T02:22:06.724Z,568.2
2023-02-02T02:23:09.213Z,567
2023-02-02T02:24:11.760Z,566.3
2023-02-02T02:25:13.708Z,567.5
2023-02-02T02:26:16.205Z,566
2023-02-02T02:27:18.807Z,566
2023-02-02T02:28:21.342Z,566.5
2023-02-02T02:29:23.289Z,565.4
2023-02-02T02:30:25.515Z,566.5
2023-02-02T02:31:28.672Z,568
2023-02-02T02:32:31.268Z,567.6
2023-02-02T02:33:33.775Z,568.6
2023-02-02T02:34:36.014Z,567.6
2023-02-02T02:35:38.513Z,568.5
2023-02-02T02:36:40.726Z,567.9
2023-02-02T02:37:42.947Z,568.2
2023-02-02T02:38:45.217Z,568
2023-02-02T02:39:47.463Z,567.9
2023-02-02T02:40:49.960Z,567.2
2023-02-02T02:41:51.902Z,567
2023-02-02T02:42:54.504Z,568.8
2023-02-02T02:43:56.721Z,567.8
2023-02-02T02:44:59.231Z,568.6
2023-02-02T02:46:01.833Z,568
2023-02-02T02:47:04.348Z,568.9
2023-02-02T02:48:06.874Z,568.7
2023-02-02T02:49:09.382Z,569
2023-02-02T02:50:11.326Z,569.6
2023-02-02T02:51:13.540Z,570.1
2023-02-02T02:52:16.042Z,565.9
2023-02-02T02:53:18.592Z,569
2023-02-02T02:54:21.142Z,568.1
2023-02-02T02:55:25.867Z,568.7
2023-02-02T02:56:28.455Z,568.5
2023-02-02T02:57:30.940Z,568.7
2023-02-02T02:58:33.259Z,568.4
2023-02-02T02:59:35.477Z,568.5
2023-02-02T03:00:37.698Z,567.6
2023-02-02T03:01:40.401Z,568.7
2023-02-02T03:02:43.174Z,568.6
2023-02-02T03:03:45.690Z,567.9
2023-02-02T03:04:48.222Z,568.3
2023-02-02T03:05:50.725Z,568
2023-02-02T03:06:53.016Z,567.7
2023-02-02T03:07:55.508Z,567.2
2023-02-02T03:08:58.033Z,566.5
2023-02-02T03:10:00.522Z,567.2
2023-02-02T03:11:03.040Z,566.8
2023-02-02T03:12:05.573Z,566.7
2023-02-02T03:13:08.073Z,567.3
2023-02-02T03:14:10.721Z,567.3
2023-02-02T03:15:12.940Z,568.7
2023-02-02T03:16:15.505Z,567.2
2023-02-02T03:17:18.014Z,566.5
2023-02-02T03:18:20.514Z,567.1
2023-02-02T03:19:22.748Z,568
2023-02-02T03:20:25.265Z,568.6
2023-02-02T03:21:27.592Z,568.7
2023-02-02T03:22:29.807Z,567.2
2023-02-02T03:23:32.303Z,568
2023-02-02T03:24:34.802Z,567.6
2023-02-02T03:25:37.039Z,566.4
2023-02-02T03:26:39.850Z,565.7
2023-02-02T03:27:42.116Z,567.2
2023-02-02T03:28:44.635Z,567.6
2023-02-02T03:29:46.917Z,567.2
2023-02-02T03:30:49.963Z,567.4
2023-02-02T03:31:52.546Z,566.8
2023-02-02T03:32:55.037Z,567.9
2023-02-02T03:33:57.553Z,568.2
2023-02-02T03:35:00.040Z,567.9
2023-02-02T03:36:02.632Z,568.3
2023-02-02T03:37:05.243Z,568.3
2023-02-02T03:38:07.188Z,567.2
2023-02-02T03:39:09.159Z,568.5
2023-02-02T03:40:11.380Z,566.4
2023-02-02T03:41:13.879Z,565.8
2023-02-02T03:42:16.410Z,567.6
2023-02-02T03:43:18.891Z,563.7
2023-02-02T03:44:21.384Z,566.5
2023-02-02T03:45:25.426Z,566.4
2023-02-02T03:46:28.501Z,567.5
2023-02-02T03:47:30.772Z,567.9
2023-02-02T03:48:33.272Z,567.6
2023-02-02T03:49:35.510Z,568.2
2023-02-02T03:50:38.024Z,567.2
2023-02-02T03:51:40.519Z,567.2
2023-02-02T03:52:42.749Z,566.4
2023-02-02T03:53:45.447Z,567.2
2023-02-02T03:54:47.389Z,567.1
2023-02-02T03:55:49.387Z,567.5
2023-02-02T03:56:51.894Z,566.4
2023-02-02T03:57:54.146Z,567
2023-02-02T03:58:56.655Z,565.4
2023-02-02T03:59:58.878Z,566.5
2023-02-02T04:01:01.176Z,565.7
2023-02-02T04:02:03.722Z,565.5
2023-02-02T04:03:06.630Z,565.8
2023-02-02T04:04:09.221Z,565.9
2023-02-02T04:05:11.179Z,566.3
2023-02-02T04:06:13.666Z,567.2
2023-02-02T04:07:16.165Z,565.6
2023-02-02T04:08:18.664Z,567.1
2023-02-02T04:09:20.641Z,567.1
2023-02-02T04:10:23.157Z,567.2
2023-02-02T04:11:25.090Z,567.2
2023-02-02T04:12:27.306Z,566.2
2023-02-02T04:13:29.905Z,566.7
2023-02-02T04:14:32.406Z,566.4
2023-02-02T04:15:34.364Z,567.8
2023-02-02T04:16:37.273Z,565.3
2023-02-02T04:17:39.487Z,566.9
2023-02-02T04:18:41.433Z,566.4
2023-02-02T04:19:43.933Z,566.3
2023-02-02T04:20:46.441Z,565.1
2023-02-02T04:21:49.071Z,567.4
2023-02-02T04:22:51.735Z,566.3
2023-02-02T04:23:54.301Z,565.1
2023-02-02T04:24:56.857Z,567.2
2023-02-02T04:25:58.560Z,566.8
2023-02-02T04:27:00.789Z,566.3
2023-02-02T04:28:03.303Z,566.6
2023-02-02T04:29:05.848Z,565.4
2023-02-02T04:30:08.066Z,565.8
2023-02-02T04:31:11.214Z,565.9
2023-02-02T04:32:13.871Z,565.6
2023-02-02T04:33:16.395Z,566.1
2023-02-02T04:34:18.623Z,565.7
2023-02-02T04:35:20.841Z,565.8
2023-02-02T04:36:22.793Z,565.1
2023-02-02T04:37:25.288Z,566.2
2023-02-02T04:38:27.506Z,566.6
2023-02-02T04:39:30.023Z,566.3
2023-02-02T04:40:32.720Z,566.3
2023-02-02T04:41:35.307Z,566
2023-02-02T04:42:37.590Z,565.3
2023-02-02T04:43:39.607Z,566.8
2023-02-02T04:44:41.592Z,566.8
2023-02-02T04:45:44.121Z,566
2023-02-02T04:46:46.411Z,565.5
2023-02-02T04:47:49.003Z,564
2023-02-02T04:48:51.499Z,566.7
2023-02-02T04:49:53.771Z,565.8
2023-02-02T04:50:56.261Z,564.1
2023-02-02T04:51:58.504Z,567.5
2023-02-02T04:53:00.758Z,565.8
2023-02-02T04:54:03.255Z,566.3
2023-02-02T04:55:05.748Z,565.5
2023-02-02T04:56:07.727Z,565.7
2023-02-02T04:57:10.261Z,566.5
2023-02-02T04:58:12.852Z,565.3
2023-02-02T04:59:15.670Z,566.7
2023-02-02T05:00:18.189Z,565.3
2023-02-02T05:01:20.924Z,565.1
2023-02-02T05:02:23.490Z,565.4
2023-02-02T05:03:26.095Z,565.6
2023-02-02T05:04:28.118Z,565.4
2023-02-02T05:05:30.655Z,564.2
2023-02-02T05:06:32.876Z,563.8
2023-02-02T05:07:35.111Z,563.4
2023-02-02T05:08:37.607Z,564.3
2023-02-02T05:09:40.117Z,564.5
2023-02-02T05:10:42.086Z,565.5
2023-02-02T05:11:44.588Z,564.6
2023-02-02T05:12:46.827Z,565.4
2023-02-02T05:13:49.369Z,566.3
2023-02-02T05:14:51.873Z,565.8
2023-02-02T05:15:54.430Z,565.2
2023-02-02T05:16:56.896Z,563.9
2023-02-02T05:17:59.128Z,564.2
2023-02-02T05:19:01.819Z,563.8
2023-02-02T05:20:04.367Z,564
2023-02-02T05:21:06.890Z,565
2023-02-02T05:22:08.868Z,560.6
2023-02-02T05:23:11.393Z,563.4
2023-02-02T05:24:13.932Z,564
2023-02-02T05:25:16.171Z,562.6
2023-02-02T05:26:19.075Z,562.6
2023-02-02T05:27:21.596Z,564.1
2023-02-02T05:28:23.854Z,562.5
2023-02-02T05:29:26.346Z,562.3
2023-02-02T05:30:28.888Z,560.7
2023-02-02T05:31:31.693Z,563.7
2023-02-02T05:32:33.938Z,563
2023-02-02T05:33:36.168Z,562.9
2023-02-02T05:34:38.471Z,562.9
2023-02-02T05:35:40.981Z,562.7
2023-02-02T05:36:43.488Z,563.2
2023-02-02T05:37:45.996Z,562.5
2023-02-02T05:38:49.262Z,562.4
2023-02-02T05:39:51.847Z,562.1
2023-02-02T05:40:53.938Z,562.4
2023-02-02T05:41:56.442Z,562.6
2023-02-02T05:42:59.596Z,562.9
2023-02-02T05:44:02.009Z,562.5
2023-02-02T05:45:04.585Z,561.8
2023-02-02T05:46:07.452Z,562.7
2023-02-02T05:47:09.830Z,562.7
2023-02-02T05:48:12.341Z,562.5
2023-02-02T05:49:14.865Z,562.7
2023-02-02T05:50:17.470Z,563.6
2023-02-02T05:51:19.825Z,562.7
2023-02-02T05:52:22.050Z,564.2
2023-02-02T05:53:24.569Z,563
2023-02-02T05:54:27.240Z,563.5
2023-02-02T05:55:29.479Z,563.3
2023-02-02T05:56:32.011Z,562.8
2023-02-02T05:57:34.540Z,561.3
2023-02-02T05:58:37.080Z,561.5
2023-02-02T05:59:39.601Z,562.3
2023-02-02T06:00:41.845Z,563
2023-02-02T06:01:44.361Z,562.7
2023-02-02T06:02:46.832Z,563.3
2023-02-02T06:03:49.778Z,561.9
2023-02-02T06:04:52.069Z,563
2023-02-02T06:05:54.736Z,562.3
2023-02-02T06:06:57.253Z,562.4
2023-02-02T06:07:59.770Z,563.1
2023-02-02T06:09:02.037Z,563.2
2023-02-02T06:10:04.571Z,560.5
2023-02-02T06:11:06.520Z,563.4
2023-02-02T06:12:08.757Z,561.8
2023-02-02T06:13:11.003Z,562.1
2023-02-02T06:14:13.531Z,562.1
2023-02-02T06:15:16.182Z,562.3
2023-02-02T06:16:19.020Z,561.2
2023-02-02T06:17:21.551Z,561.5
2023-02-02T06:18:24.102Z,562.6
2023-02-02T06:19:26.617Z,563.1
2023-02-02T06:20:29.155Z,562.6
2023-02-02T06:21:31.802Z,562.7
2023-02-02T06:22:34.328Z,562.9
2023-02-02T06:23:36.877Z,561.9
2023-02-02T06:24:39.109Z,562.3
2023-02-02T06:25:41.341Z,561.7
2023-02-02T06:26:44.180Z,561.1
2023-02-02T06:27:46.177Z,562.1
2023-02-02T06:28:48.412Z,561.6
2023-02-02T06:29:50.639Z,562.6
2023-02-02T06:30:53.633Z,561.8
2023-02-02T06:31:56.512Z,561.3
2023-02-02T06:32:59.098Z,562.1
2023-02-02T06:34:01.367Z,560.9
2023-02-02T06:35:03.883Z,561.5
2023-02-02T06:36:06.473Z,561.6
2023-02-02T06:37:09.267Z,562
2023-02-02T06:38:11.744Z,561.8
2023-02-02T06:39:14.007Z,561.7
2023-02-02T06:40:16.231Z,561.3
2023-02-02T06:41:18.187Z,562.4
2023-02-02T06:43:25.359Z,562.1
2023-02-02T06:44:27.884Z,561.5
2023-02-02T06:45:30.426Z,561.5
2023-02-02T06:46:33.399Z,561.9
2023-02-02T06:47:35.984Z,561.4
2023-02-02T06:48:37.970Z,560.4
2023-02-02T06:49:40.524Z,560.1
2023-02-02T06:50:43.036Z,560.4
2023-02-02T06:51:45.280Z,561.6
2023-02-02T06:52:47.883Z,560.6
2023-02-02T06:53:49.945Z,561
2023-02-02T06:54:51.941Z,561.1
2023-02-02T06:55:54.454Z,560.4
2023-02-02T06:56:56.949Z,560.4
2023-02-02T06:57:59.175Z,561.4
2023-02-02T06:59:01.698Z,560.6
2023-02-02T07:00:03.968Z,558.6
2023-02-02T07:01:06.361Z,558.3
2023-02-02T07:02:08.939Z,558.8
2023-02-02T07:03:11.157Z,558.2
2023-02-02T07:04:13.708Z,558.4
2023-02-02T07:05:16.237Z,556.5
2023-02-02T07:06:18.238Z,557.8
2023-02-02T07:07:20.796Z,558
2023-02-02T07:08:23.463Z,557.9
2023-02-02T07:09:26.111Z,557.6
2023-02-02T07:12:38.939Z,556.2
2023-02-02T07:13:41.166Z,558.7
2023-02-02T07:14:43.398Z,557.9
2023-02-02T07:15:45.661Z,558.1
2023-02-02T07:16:48.217Z,558.3
2023-02-02T07:17:50.456Z,555.7
2023-02-02T07:18:52.998Z,557.1
2023-02-02T07:19:55.262Z,557.1
2023-02-02T07:20:57.810Z,556.8
2023-02-02T07:22:00.320Z,556.9
2023-02-02T07:23:02.885Z,557.1
2023-02-02T07:24:05.663Z,557.5
2023-02-02T07:25:07.936Z,557.7
2023-02-02T07:26:10.444Z,556.9
2023-02-02T07:27:12.967Z,556
2023-02-02T07:28:15.188Z,557.2
2023-02-02T07:29:17.728Z,555.8
2023-02-02T07:30:19.912Z,556.3
2023-02-02T07:31:22.473Z,556.2
2023-02-02T07:32:24.707Z,556.7
2023-02-02T07:33:27.234Z,556.6
2023-02-02T07:34:29.474Z,557.3
2023-02-02T07:35:31.711Z,558
2023-02-02T07:36:34.436Z,556.8
2023-02-02T07:37:39.752Z,556.4
2023-02-02T07:38:44.404Z,556.6
2023-02-02T07:39:47.023Z,557.1
2023-02-02T07:40:49.251Z,557.2
2023-02-02T07:41:51.475Z,556.3
2023-02-02T07:42:54.017Z,556.2
2023-02-02T07:43:56.605Z,556
2023-02-02T07:46:06.383Z,555.9
2023-02-02T07:47:08.668Z,555.8
2023-02-02T07:48:10.906Z,555.7
2023-02-02T07:49:13.148Z,556.2
2023-02-02T07:50:15.490Z,554.1
2023-02-02T07:51:18.091Z,556.2
2023-02-02T07:52:20.660Z,555.9
2023-02-02T07:53:22.929Z,554.3
2023-02-02T07:54:24.946Z,554.5
2023-02-02T07:55:28.905Z,553.5
2023-02-02T07:56:31.288Z,555.3
2023-02-02T07:57:33.805Z,555.4
2023-02-02T07:58:36.317Z,555.8
2023-02-02T07:59:38.551Z,556.4
2023-02-02T08:00:41.049Z,554.1
2023-02-02T08:01:43.913Z,554.2
2023-02-02T08:02:46.650Z,554.8
2023-02-02T08:03:48.630Z,554.7
2023-02-02T08:04:51.128Z,554.2
2023-02-02T08:05:53.642Z,554.4
2023-02-02T08:06:55.872Z,554.2
2023-02-02T08:07:58.426Z,554.2
2023-02-02T08:09:00.676Z,554.2
2023-02-02T08:10:02.674Z,553.4
2023-02-02T08:11:05.089Z,553.8
2023-02-02T08:12:07.373Z,553.9
2023-02-02T08:13:09.393Z,553.7
2023-02-02T08:14:11.934Z,554
2023-02-02T08:15:14.523Z,552.3
2023-02-02T08:16:17.700Z,553.1
2023-02-02T08:17:20.265Z,552.5
2023-02-02T08:18:22.515Z,552.7
2023-02-02T08:19:25.032Z,552.4
2023-02-02T08:20:27.557Z,553.1
2023-02-02T08:21:29.799Z,551.8
2023-02-02T08:22:32.015Z,552.3
2023-02-02T08:23:33.999Z,552.1
2023-02-02T08:24:36.511Z,552.1
2023-02-02T08:25:38.737Z,552.1
2023-02-02T08:26:41.565Z,552.3
2023-02-02T08:27:43.838Z,552.4
2023-02-02T08:28:46.344Z,551.9
2023-02-02T08:29:48.600Z,551.2
2023-02-02T08:30:51.338Z,551.2
2023-02-02T08:31:54.320Z,550.1
2023-02-02T08:32:56.623Z,550.8
2023-02-02T08:33:59.283Z,550.7
2023-02-02T08:35:01.610Z,550.5
2023-02-02T08:36:04.146Z,550.6
2023-02-02T08:37:06.660Z,550.5
2023-02-02T08:38:09.177Z,550.5
2023-02-02T08:39:11.213Z,550.8
2023-02-02T08:40:14.040Z,550.6
2023-02-02T08:41:16.710Z,550.7
2023-02-02T08:42:19.400Z,550.1
2023-02-02T08:43:22.037Z,550.1
2023-02-02T08:46:34.767Z,550.7
2023-02-02T08:47:37.953Z,549.8
2023-02-02T08:48:40.860Z,551
2023-02-02T08:49:43.429Z,550.9
2023-02-02T08:50:44.811Z,551.3
2023-02-02T08:51:47.101Z,551.1
2023-02-02T08:52:49.333Z,550.2
2023-02-02T08:53:51.569Z,550.9
2023-02-02T08:54:54.162Z,550.2
2023-02-02T08:55:56.388Z,550.5
2023-02-02T08:56:58.900Z,549.8
2023-02-02T08:58:01.512Z,550.1
2023-02-02T08:59:03.787Z,549.1
2023-02-02T09:00:06.022Z,549.7
2023-02-02T09:01:09.009Z,549.4
2023-02-02T09:02:11.594Z,549.6
2023-02-02T09:03:13.842Z,549.8
2023-02-02T09:04:16.396Z,549.1
2023-02-02T09:05:18.928Z,550
2023-02-02T09:06:21.158Z,548.8
2023-02-02T09:07:23.696Z,549.2
2023-02-02T09:08:26.218Z,549.3
2023-02-02T09:09:28.504Z,549.2
2023-02-02T09:10:31.036Z,547.8
2023-02-02T09:11:33.293Z,549.1
2023-02-02T09:12:35.817Z,549.2
2023-02-02T09:13:38.472Z,549
2023-02-02T09:14:40.987Z,550.3
2023-02-02T09:15:43.215Z,549.6
2023-02-02T09:16:46.151Z,548.8
2023-02-02T09:17:48.674Z,548.8
2023-02-02T09:18:51.033Z,546.3
2023-02-02T09:19:53.273Z,548.7
2023-02-02T09:20:55.856Z,548.5
2023-02-02T09:21:58.369Z,548.5
2023-02-02T09:23:00.910Z,548.1
2023-02-02T09:24:03.437Z,548.9
2023-02-02T09:25:05.962Z,548.2
2023-02-02T09:26:08.238Z,548.5
2023-02-02T09:27:10.496Z,547.7
2023-02-02T09:28:12.463Z,547.4
2023-02-02T09:29:15.070Z,547.9
2023-02-02T09:30:17.629Z,547.7
2023-02-02T09:31:20.190Z,549
2023-02-02T09:32:22.517Z,548.3
2023-02-02T09:33:24.528Z,548.6
2023-02-02T09:34:27.131Z,547.5
2023-02-02T09:35:29.460Z,547.6
2023-02-02T09:36:32.096Z,548.2
2023-02-02T09:37:34.646Z,546.5
2023-02-02T09:38:37.239Z,548.2
2023-02-02T09:39:39.740Z,548.2
2023-02-02T09:40:42.011Z,547.4
2023-02-02T09:41:44.568Z,547
2023-02-02T09:42:47.084Z,548.3
2023-02-02T09:43:49.639Z,547.7
2023-02-02T09:44:52.281Z,548.5
2023-02-02T09:45:54.434Z,547
2023-02-02T09:46:56.729Z,548.4
2023-02-02T09:47:58.752Z,547.9
2023-02-02T09:49:01.269Z,547.6
2023-02-02T09:50:03.816Z,547.8
2023-02-02T09:51:06.313Z,548.3
2023-02-02T09:52:08.558Z,548
2023-02-02T09:53:10.822Z,548.3
2023-02-02T09:54:13.372Z,548.1
2023-02-02T09:55:15.627Z,547.6
2023-02-02T09:56:17.888Z,547.9
2023-02-02T09:57:20.439Z,546.3
2023-02-02T09:58:22.674Z,546.3
2023-02-02T09:59:26.403Z,547.3
2023-02-02T10:00:29.028Z,546.6
2023-02-02T10:01:32.035Z,547.3
2023-02-02T10:02:34.372Z,546.8
2023-02-02T10:03:37.148Z,546.8
2023-02-02T10:04:39.143Z,546.5
2023-02-02T10:05:41.671Z,546.6
2023-02-02T10:06:44.200Z,547.4
2023-02-02T10:07:46.805Z,547.2
2023-02-02T10:08:49.362Z,545.8
2023-02-02T10:09:51.387Z,546.3
2023-02-02T10:10:53.930Z,547.1
2023-02-02T10:11:55.912Z,546.6
2023-02-02T10:12:58.516Z,546.2
2023-02-02T10:14:01.088Z,547.2
2023-02-02T10:15:04.116Z,547.5
2023-02-02T10:16:07.095Z,546.5
2023-02-02T10:17:09.620Z,544.8
2023-02-02T10:18:12.165Z,546.8
2023-02-02T10:19:14.387Z,547.7
2023-02-02T10:20:16.911Z,547.3
2023-02-02T10:21:19.414Z,546.4
2023-02-02T10:22:21.649Z,547
2023-02-02T10:23:23.633Z,546.3
2023-02-02T10:24:26.575Z,548.3
2023-02-02T10:25:29.104Z,547.7
2023-02-02T10:26:31.286Z,547.2
2023-02-02T10:27:33.514Z,546.9
2023-02-02T10:28:35.774Z,545.4
2023-02-02T10:30:43.952Z,546.8
2023-02-02T10:31:47.632Z,546.1
2023-02-02T10:32:50.027Z,546.9
2023-02-02T10:33:52.290Z,547.9
2023-02-02T10:35:59.838Z,547.8
2023-02-02T10:37:02.096Z,548.6
2023-02-02T10:38:04.691Z,548.2
2023-02-02T10:39:06.936Z,547.4
2023-02-02T10:40:09.691Z,548.3
2023-02-02T10:41:11.706Z,547.4
2023-02-02T10:42:14.240Z,547.2
2023-02-02T10:43:16.478Z,547.5
2023-02-02T10:44:19.126Z,547
2023-02-02T10:45:21.152Z,547.1
2023-02-02T10:46:23.945Z,547.5
2023-02-02T10:47:26.651Z,547.4
2023-02-02T10:48:28.987Z,548.1
2023-02-02T10:49:31.315Z,548.5
2023-02-02T10:50:33.623Z,547.7
2023-02-02T10:51:36.349Z,547.1
2023-02-02T10:52:38.602Z,546.9
2023-02-02T10:53:41.107Z,547.7
2023-02-02T10:55:48.599Z,547.8
2023-02-02T10:56:51.149Z,548
2023-02-02T10:57:53.454Z,548.8
2023-02-02T10:58:55.994Z,548
2023-02-02T10:59:57.966Z,548.4
2023-02-02T11:01:00.227Z,547.6
2023-02-02T11:03:08.228Z,548.9
2023-02-02T11:04:10.763Z,548
2023-02-02T11:05:13.280Z,548.8
2023-02-02T11:06:15.811Z,548.9
2023-02-02T11:07:18.037Z,547.2
2023-02-02T11:08:20.577Z,549.2
2023-02-02T11:09:24.620Z,549.3
2023-02-02T11:10:28.676Z,550
2023-02-02T11:11:31.718Z,547.4
2023-02-02T11:12:35.312Z,549.3
2023-02-02T11:13:37.532Z,548.6
2023-02-02T11:15:45.016Z,549.6
2023-02-02T11:16:48.144Z,547.7
2023-02-02T11:17:50.666Z,550
2023-02-02T11:18:52.807Z,548.7
2023-02-02T11:19:55.028Z,549.6
2023-02-02T11:20:57.615Z,548.8
2023-02-02T11:22:00.115Z,549
2023-02-02T11:23:02.661Z,549.8
2023-02-02T11:24:04.904Z,548.8
2023-02-02T11:25:06.888Z,548.8
2023-02-02T11:26:09.605Z,547
2023-02-02T11:27:11.652Z,548.1
2023-02-02T11:28:13.980Z,547.1
2023-02-02T11:29:16.261Z,549.4
2023-02-02T11:30:18.502Z,548.1
2023-02-02T11:31:21.646Z,547.7
2023-02-02T11:32:23.913Z,549.5
2023-02-02T11:33:26.156Z,548.9
2023-02-02T11:34:28.796Z,548.5
2023-02-02T11:35:31.025Z,548.4
2023-02-02T11:36:32.971Z,548.4
2023-02-02T11:37:35.568Z,549.3
2023-02-02T11:38:37.825Z,547.9
2023-02-02T11:39:40.399Z,549
2023-02-02T11:40:42.698Z,547.3
2023-02-02T11:41:44.935Z,548.8
2023-02-02T11:42:47.210Z,548
2023-02-02T11:43:49.727Z,549
2023-02-02T11:44:52.062Z,547
2023-02-02T11:45:54.563Z,547.4
2023-02-02T11:46:57.557Z,547.6
2023-02-02T11:47:59.837Z,547.6
2023-02-02T11:49:02.431Z,547.7
2023-02-02T11:50:07.877Z,546.8
2023-02-02T11:51:10.792Z,547.8
2023-02-02T11:52:14.935Z,548.2
2023-02-02T11:53:17.438Z,547.9
2023-02-02T11:54:19.683Z,548.4
2023-02-02T11:55:21.917Z,547
2023-02-02T11:56:24.437Z,548.3
2023-02-02T11:57:26.651Z,548.2
2023-02-02T11:58:28.987Z,548.2
2023-02-02T11:59:31.207Z,547.9
2023-02-02T12:00:33.471Z,548.9
2023-02-02T12:01:36.140Z,548.5
2023-02-02T12:02:38.408Z,548.2
2023-02-02T12:03:41.495Z,547.8
2023-02-02T12:04:44.054Z,548.5
2023-02-02T12:05:46.672Z,548.1
2023-02-02T12:06:48.899Z,546.2
2023-02-02T12:07:51.444Z,548.2
2023-02-02T12:08:53.413Z,547.9
2023-02-02T12:09:55.651Z,549.3
2023-02-02T12:10:58.226Z,548
2023-02-02T12:12:00.759Z,548.1
2023-02-02T12:13:02.793Z,548.5
2023-02-02T12:14:05.318Z,548.3
2023-02-02T12:15:07.564Z,548.8
2023-02-02T12:16:11.116Z,548.1
2023-02-02T12:17:13.445Z,548.9
2023-02-02T12:18:16.136Z,547.2
2023-02-02T12:19:18.464Z,548.1
2023-02-02T12:20:20.858Z,547.5
2023-02-02T12:21:23.560Z,548
2023-02-02T12:22:26.543Z,548
2023-02-02T12:23:29.257Z,547.2
2023-02-02T12:24:31.540Z,548.1
2023-02-02T12:25:33.835Z,547.7
2023-02-02T12:26:36.094Z,548.2
2023-02-02T12:27:38.640Z,548
2023-02-02T12:28:40.870Z,548.5
2023-02-02T12:29:43.434Z,547.6
2023-02-02T12:30:46.430Z,548
2023-02-02T12:31:49.416Z,548.2
2023-02-02T12:32:51.949Z,548.8
2023-02-02T12:33:54.536Z,548.5
2023-02-02T12:34:56.483Z,550
2023-02-02T12:35:59.067Z,549
2023-02-02T12:37:01.700Z,550.1
2023-02-02T12:38:03.963Z,549
2023-02-02T12:39:06.474Z,548.7
2023-02-02T12:40:12.606Z,548.5
2023-02-02T12:41:15.133Z,549.6
2023-02-02T12:42:17.384Z,548.2
2023-02-02T12:43:19.602Z,548.8
2023-02-02T12:44:21.861Z,548.3
2023-02-02T12:45:24.418Z,548.9
2023-02-02T12:46:26.928Z,549.8
2023-02-02T12:47:29.194Z,547.8
2023-02-02T12:48:31.700Z,548.5
2023-02-02T12:49:34.432Z,549.3
2023-02-02T12:50:36.677Z,549.3
2023-02-02T12:51:38.641Z,548.4
2023-02-02T12:52:40.822Z,548.5
2023-02-02T12:53:43.376Z,549.3
2023-02-02T12:55:54.406Z,548.9
2023-02-02T12:56:57.611Z,548.6
2023-02-02T12:57:59.579Z,548.4
2023-02-02T12:59:02.091Z,548.2
2023-02-02T13:00:04.376Z,548.4
2023-02-02T13:01:07.195Z,547.2
2023-02-02T13:02:09.912Z,548
2023-02-02T13:03:12.416Z,547.3
2023-02-02T13:04:14.671Z,547.9
2023-02-02T13:05:16.944Z,547.7
2023-02-02T13:06:19.611Z,547.8
2023-02-02T13:07:21.703Z,547.5
2023-02-02T13:08:24.330Z,548
2023-02-02T13:09:26.568Z,548.4
2023-02-02T13:10:30.054Z,548.4
2023-02-02T13:11:32.054Z,547.9
2023-02-02T13:12:34.565Z,547.5
2023-02-02T13:13:37.086Z,548.5
2023-02-02T13:14:39.590Z,547.3
2023-02-02T13:15:41.554Z,547.5
2023-02-02T13:16:44.099Z,546.9
2023-02-02T13:17:46.641Z,545.8
2023-02-02T13:18:48.315Z,546.6
2023-02-02T13:20:56.622Z,545.7
2023-02-02T13:21:58.907Z,546.4
2023-02-02T13:23:01.210Z,546.2
2023-02-02T13:24:06.638Z,545.8
2023-02-02T13:25:09.193Z,545.9
2023-02-02T13:26:11.941Z,545.5
2023-02-02T13:27:14.931Z,543.8
2023-02-02T13:28:17.448Z,546.3
2023-02-02T13:29:19.988Z,544.6
2023-02-02T13:30:22.676Z,544.6
2023-02-02T13:31:26.081Z,544
2023-02-02T13:32:28.398Z,544.9
2023-02-02T13:33:30.647Z,543.7
2023-02-02T13:34:33.179Z,544.9
2023-02-02T13:35:35.694Z,544.5
2023-02-02T13:36:38.495Z,545.3
2023-02-02T13:37:40.742Z,543.7
2023-02-02T13:38:43.398Z,545
2023-02-02T13:39:45.427Z,543.8
2023-02-02T13:40:48.391Z,544.1
2023-02-02T13:41:50.225Z,543.6
2023-02-02T13:42:52.456Z,542.8
2023-02-02T13:43:54.134Z,543.8